Time;durP1;ratioP1;P1;durP2;ratioP2;P2;SDS_P1;SDS_P2;PMS_P1;PMS_P2;Temp;Humidity;BMP_temperature;BMP_pressure;BME280_temperature;BME280_humidity;BME280_pressure;Samples;Min_cycle;Max_cycle;Signal;HPM_P1;HPM_P2
2022/03/02 09:54:10;;;;;;;;;46.25;39.00;;;;;11.09;42.33;101377.28;5091578;27;45460;-76
2022/03/02 09:56:37;;;;;;;;;50.50;38.50;;;;;11.22;43.04;101381.84;5072568;28;45514;-81
2022/03/02 09:59:07;;;;;;;;;42.50;37.75;;;;;11.14;42.20;101355.38;5070250;27;45396;-74
2022/03/02 10:01:35;;;;;;;;;55.25;42.25;;;;;11.29;41.94;101378.44;5072936;27;45464;-82
2022/03/02 10:04:17;;;;;;;;;47.00;42.25;;;;;11.13;42.70;101374.69;5075686;27;46156;-84
2022/03/02 10:06:45;;;;;;;;;49.00;41.50;;;;;11.13;42.88;101384.34;5086018;27;45531;-81
2022/03/02 10:09:13;;;;;;;;;47.00;38.50;;;;;11.22;42.13;101386.25;5078952;28;45223;-90
2022/03/02 10:11:41;;;;;;;;;54.00;39.25;;;;;11.25;42.28;101367.81;5076492;27;45434;-86
2022/03/02 10:14:08;;;;;;;;;48.50;42.75;;;;;11.40;42.41;101361.03;5069895;28;45613;-85
2022/03/02 10:16:43;;;;;;;;;50.75;41.75;;;;;11.74;41.88;101374.69;5072033;28;45464;-83
2022/03/02 10:19:20;;;;;;;;;48.50;40.75;;;;;11.85;41.45;101341.41;5074792;27;45397;-82
2022/03/02 10:22:04;;;;;;;;;51.25;37.75;;;;;12.20;41.08;101369.97;5057016;28;45562;-87
2022/03/02 10:24:32;;;;;;;;;45.50;38.50;;;;;12.36;40.03;101342.81;5076842;27;46762;-77
2022/03/02 10:27:04;;;;;;;;;45.25;39.25;;;;;12.75;40.15;101344.97;5074218;28;45330;-80
2022/03/02 10:29:35;;;;;;;;;46.75;40.50;;;;;13.29;39.29;101369.16;5072924;28;45746;-82
2022/03/02 10:32:17;;;;;;;;;49.50;41.75;;;;;13.76;38.30;101350.00;5073228;28;45425;-81
2022/03/02 10:34:50;;;;;;;;;48.25;41.25;;;;;14.13;37.83;101356.31;5075037;27;45484;-76
2022/03/02 10:37:33;;;;;;;;;53.50;43.00;;;;;14.73;36.81;101354.69;5074340;27;45493;-80
2022/03/02 10:40:15;;;;;;;;;46.50;39.25;;;;;15.34;36.52;101349.28;5072127;28;45440;-77
2022/03/02 10:42:46;;;;;;;;;46.00;40.25;;;;;15.60;35.26;101346.56;5072842;28;45495;-74
2022/03/02 10:45:16;;;;;;;;;45.00;40.25;;;;;15.81;34.64;101329.69;5071968;28;45677;-76
2022/03/02 10:48:02;;;;;;;;;51.00;40.50;;;;;16.32;33.80;101331.19;5072070;28;45500;-75
2022/03/02 10:50:36;;;;;;;;;55.50;44.25;;;;;16.78;33.10;101334.41;5071474;28;45420;-73
2022/03/02 10:53:04;;;;;;;;;54.50;42.75;;;;;17.16;32.52;101326.97;5071028;28;45551;-75
2022/03/02 10:55:34;;;;;;;;;45.25;39.75;;;;;17.26;32.26;101300.22;5071296;27;45389;-75
2022/03/02 10:58:02;;;;;;;;;52.50;43.75;;;;;17.69;31.78;101317.47;5072945;28;45697;-81
2022/03/02 11:00:32;;;;;;;;;48.50;39.75;;;;;17.82;31.36;101313.78;5072891;28;45507;-74
2022/03/02 11:02:58;;;;;;;;;50.25;42.00;;;;;17.56;31.64;101296.28;5072775;28;45241;-76
2022/03/02 11:05:30;;;;;;;;;48.25;42.00;;;;;17.75;31.23;101309.41;5058848;28;46182;-78
2022/03/02 11:07:57;;;;;;;;;47.75;39.00;;;;;17.52;31.08;101269.72;5058458;28;45437;-76
2022/03/02 11:10:33;;;;;;;;;51.00;41.25;;;;;17.88;31.28;101306.59;5057229;28;45529;-79
2022/03/02 11:13:00;;;;;;;;;46.75;38.25;;;;;18.04;30.74;101315.22;5058852;28;45521;-84
2022/03/02 11:15:25;;;;;;;;;49.25;39.00;;;;;17.93;30.89;101261.19;5058512;28;46048;-75
2022/03/02 11:17:56;;;;;;;;;51.75;40.75;;;;;18.02;30.70;101250.41;5059944;28;45656;-75
2022/03/02 11:20:24;;;;;;;;;39.75;34.50;;;;;18.42;30.47;101287.09;5041666;28;45488;-73
2022/03/02 11:22:56;;;;;;;;;45.50;37.50;;;;;18.36;30.20;101266.75;5058334;28;45259;-83
2022/03/02 11:25:47;;;;;;;;;48.75;40.50;;;;;18.85;30.49;101305.97;5057131;28;45445;-77
2022/03/02 11:28:16;;;;;;;;;47.25;38.00;;;;;18.92;29.53;101286.28;5058334;28;45487;-76
2022/03/02 11:31:04;;;;;;;;;45.50;36.25;;;;;19.08;29.45;101293.13;5058948;28;44898;-75
2022/03/02 11:33:30;;;;;;;;;49.00;40.50;;;;;19.25;28.98;101289.22;5058206;28;45409;-78
2022/03/02 11:36:09;;;;;;;;;46.50;39.50;;;;;19.03;28.89;101256.72;5058787;28;45349;-76
2022/03/02 11:38:34;;;;;;;;;52.50;38.75;;;;;18.96;29.55;101287.97;5059580;28;45462;-78
2022/03/02 11:41:01;;;;;;;;;47.25;36.25;;;;;18.62;29.61;101282.34;5058874;28;45459;-80
2022/03/02 11:43:28;;;;;;;;;44.75;38.00;;;;;18.64;29.61;101287.66;5058896;28;45381;-82
2022/03/02 11:45:58;;;;;;;;;41.25;36.25;;;;;18.64;29.67;101276.97;5059252;28;46094;-82
2022/03/02 11:48:30;;;;;;;;;48.00;38.00;;;;;18.55;29.22;101274.47;5056289;28;45516;-82
2022/03/02 11:51:18;;;;;;;;;43.75;38.00;;;;;18.28;30.12;101263.34;5058611;28;45539;-75
2022/03/02 11:53:46;;;;;;;;;47.25;39.00;;;;;17.99;30.12;101228.25;5062970;28;46470;-74
2022/03/02 11:56:18;;;;;;;;;48.00;37.50;;;;;18.10;29.84;101259.16;5061460;28;45496;-78
2022/03/02 11:59:02;;;;;;;;;48.75;38.00;;;;;18.10;30.19;101272.50;5060027;28;44771;-74
2022/03/02 12:01:50;;;;;;;;;48.75;40.00;;;;;17.92;30.13;101265.66;5057501;28;45503;-78
2022/03/02 12:04:16;;;;;;;;;46.25;37.75;;;;;17.60;30.52;101228.78;5062360;28;46756;-83
2022/03/02 12:06:50;;;;;;;;;45.25;37.50;;;;;17.39;30.73;101256.53;5066120;28;45608;-82
2022/03/02 12:09:42;;;;;;;;;44.75;37.25;;;;;17.39;30.90;101239.69;5084357;28;45293;-79
2022/03/02 12:12:11;;;;;;;;;44.75;38.00;;;;;17.20;30.17;101203.53;5061329;27;45515;-81
2022/03/02 12:14:55;;;;;;;;;44.75;38.25;;;;;17.52;30.82;101251.97;5063799;28;45206;-82
2022/03/02 12:17:25;;;;;;;;;48.00;38.75;;;;;17.10;31.03;101186.78;5063502;28;45923;-81
2022/03/02 12:19:54;;;;;;;;;51.75;38.00;;;;;17.33;31.10;101226.47;5061896;28;45557;-82
2022/03/02 12:22:21;;;;;;;;;44.00;38.50;;;;;17.34;30.52;101237.09;5059434;28;45397;-74
2022/03/02 12:24:48;;;;;;;;;42.50;36.00;;;;;17.08;30.82;101186.81;5062087;28;45398;-84
2022/03/02 12:27:15;;;;;;;;;38.50;35.50;;;;;17.16;30.83;101196.50;5061026;28;45703;-86
2022/03/02 12:29:43;;;;;;;;;43.50;37.00;;;;;17.36;31.15;101235.28;5056788;28;45528;-84
2022/03/02 12:32:15;;;;;;;;;44.00;37.00;;;;;17.22;31.35;101215.06;5056821;28;45502;-80
2022/03/02 12:34:44;;;;;;;;;43.25;37.75;;;;;17.21;31.10;101226.59;5058498;28;46501;-80
2022/03/02 12:37:12;;;;;;;;;47.00;37.50;;;;;17.07;31.29;101227.66;5057899;28;46921;-79
2022/03/02 12:39:37;;;;;;;;;43.75;38.00;;;;;16.98;31.51;101232.19;5059248;28;45766;-84
2022/03/02 12:42:07;;;;;;;;;39.75;36.25;;;;;16.86;31.55;101230.56;5060798;28;45527;-84
2022/03/02 12:44:35;;;;;;;;;44.75;38.00;;;;;16.61;32.15;101221.91;5059366;28;45566;-83
2022/03/02 12:47:04;;;;;;;;;45.75;35.50;;;;;16.52;32.02;101222.88;5058210;28;47295;-83
2022/03/02 12:49:31;;;;;;;;;40.00;36.25;;;;;16.52;32.80;101208.69;5059174;28;45473;-81
2022/03/02 12:51:58;;;;;;;;;43.50;37.50;;;;;16.54;32.23;101218.41;5057202;28;45485;-77
2022/03/02 12:54:23;;;;;;;;;49.25;38.75;;;;;16.60;32.54;101219.25;5057129;28;45499;-74
2022/03/02 12:56:50;;;;;;;;;48.00;39.25;;;;;16.60;32.54;101219.25;5056383;28;45737;-77
2022/03/02 12:59:16;;;;;;;;;47.50;39.00;;;;;16.57;32.71;101203.34;5059018;28;45898;-84
2022/03/02 13:01:43;;;;;;;;;46.50;38.25;;;;;16.71;32.03;101220.06;5060504;28;45400;-80
2022/03/02 13:04:12;;;;;;;;;46.25;39.50;;;;;16.65;32.31;101205.00;5059159;28;46136;-74
2022/03/02 13:06:42;;;;;;;;;45.50;38.50;;;;;16.73;31.96;101224.47;5069417;28;45512;-72
2022/03/02 13:09:17;;;;;;;;;46.00;39.75;;;;;16.74;32.31;101218.25;5057091;28;45425;-86
2022/03/02 13:11:42;;;;;;;;;44.00;37.00;;;;;16.75;32.03;101220.03;5073157;28;45422;-84
2022/03/02 13:14:31;;;;;;;;;45.50;36.50;;;;;16.76;32.68;101208.50;5059455;28;45258;-82
2022/03/02 13:17:15;;;;;;;;;47.25;38.75;;;;;16.77;31.82;101210.25;5057481;28;46208;-85
2022/03/02 13:19:45;;;;;;;;;45.00;39.00;;;;;16.78;31.93;101204.03;5056885;28;45533;-83
2022/03/02 13:22:22;;;;;;;;;54.50;41.75;;;;;16.73;32.11;101207.63;5055224;28;45449;-87
2022/03/02 13:24:52;;;;;;;;;45.25;38.00;;;;;16.67;31.60;101205.00;5055756;28;45527;-84
2022/03/02 13:27:18;;;;;;;;;42.25;37.75;;;;;16.73;31.84;101207.63;5056580;28;47066;-89
2022/03/02 13:29:55;;;;;;;;;43.25;37.00;;;;;16.63;31.77;101201.47;5057312;28;45492;-83
2022/03/02 13:32:22;;;;;;;;;47.00;38.00;;;;;16.60;31.95;101204.19;5055830;28;45399;-83
2022/03/02 13:35:10;;;;;;;;;41.50;34.00;;;;;16.52;32.38;101198.94;5055486;28;45222;-80
2022/03/02 13:37:58;;;;;;;;;40.50;35.50;;;;;16.52;32.19;101200.72;5056185;28;46515;-87
2022/03/02 13:40:35;;;;;;;;;39.00;35.50;;;;;16.51;32.18;101204.28;5060164;28;45449;-79
2022/03/02 13:43:06;;;;;;;;;41.50;34.75;;;;;16.21;32.11;101203.66;5063370;28;45464;-79
2022/03/02 13:45:36;;;;;;;;;47.00;36.50;;;;;16.00;33.13;101213.53;5054662;28;46494;-86
2022/03/02 13:48:19;;;;;;;;;38.50;34.50;;;;;16.01;33.17;101217.97;5057051;28;46310;-80
2022/03/02 13:51:17;;;;;;;;;39.00;34.75;;;;;15.92;33.52;101208.31;5055707;28;45459;-85
2022/03/02 13:53:46;;;;;;;;;39.00;35.00;;;;;15.88;33.04;101178.22;4993616;28;45471;-83
2022/03/02 13:56:36;;;;;;;;;46.50;39.00;;;;;16.10;33.30;101202.88;4977773;28;45644;-75
2022/03/02 13:59:14;;;;;;;;;41.50;36.50;;;;;16.18;32.98;101200.13;4992559;28;47122;-77
2022/03/02 14:01:39;;;;;;;;;50.75;39.00;;;;;16.23;33.53;101199.19;4992093;28;45380;-80
2022/03/02 14:04:17;;;;;;;;;44.25;36.75;;;;;16.08;33.04;101201.09;4995280;28;45400;-87
2022/03/02 14:06:44;;;;;;;;;44.50;36.25;;;;;16.03;33.25;101206.47;4992657;28;45532;-86
2022/03/02 14:09:13;;;;;;;;;47.50;38.00;;;;;16.03;33.22;101201.16;4993646;28;45525;-83
2022/03/02 14:11:42;;;;;;;;;47.75;39.50;;;;;15.99;33.16;101199.38;4992286;28;45368;-78
2022/03/02 14:14:22;;;;;;;;;45.25;36.00;;;;;15.80;33.70;101182.69;4992615;28;45478;-85
2022/03/02 14:17:10;;;;;;;;;48.25;37.75;;;;;15.79;34.18;101193.34;4997739;28;45447;-85
2022/03/02 14:19:45;;;;;;;;;41.00;32.00;;;;;15.63;34.42;101206.72;4994747;28;45733;-76
2022/03/02 14:22:11;;;;;;;;;42.00;36.00;;;;;15.43;35.05;101200.59;4991815;28;46162;-84
2022/03/02 14:24:39;;;;;;;;;45.25;40.00;;;;;15.32;35.29;101178.53;4991562;28;45476;-81
2022/03/02 14:27:16;;;;;;;;;46.50;38.00;;;;;15.28;35.04;101203.34;4993079;28;46481;-75
2022/03/02 14:30:12;;;;;;;;;42.50;37.50;;;;;15.15;35.26;101202.47;5006302;28;46217;-82
2022/03/02 14:32:43;;;;;;;;;39.50;34.00;;;;;15.17;35.15;101197.16;5015735;28;45364;-74
2022/03/02 14:35:12;;;;;;;;;48.25;39.25;;;;;15.01;35.52;101157.44;5013941;28;45509;-74
2022/03/02 14:37:40;;;;;;;;;43.75;38.25;;;;;15.34;35.29;101190.91;5014689;28;45818;-78
2022/03/02 14:40:15;;;;;;;;;51.75;42.00;;;;;15.33;35.25;101193.56;5016298;28;46767;-81
2022/03/02 14:42:53;;;;;;;;;52.75;37.50;;;;;15.31;35.53;101190.91;5017629;28;46206;-77
2022/03/02 14:45:22;;;;;;;;;40.50;36.75;;;;;15.38;35.54;101183.81;5018101;28;45662;-81
2022/03/02 14:47:56;;;;;;;;;53.50;41.00;;;;;15.43;35.24;101178.47;5015943;28;45830;-81
2022/03/02 14:50:37;;;;;;;;;47.50;38.25;;;;;15.38;35.71;101186.47;5016985;28;45564;-87
2022/03/02 14:53:05;;;;;;;;;52.75;40.75;;;;;15.38;35.60;101181.16;5037380;28;45554;-85
2022/03/02 14:55:50;;;;;;;;;47.75;42.00;;;;;15.42;35.47;101180.25;5059407;28;45531;-78
2022/03/02 14:58:23;;;;;;;;;51.25;38.00;;;;;15.28;35.95;101179.44;5057301;28;45268;-82
2022/03/02 15:00:50;;;;;;;;;48.75;36.25;;;;;15.28;36.03;101169.72;5054951;28;46734;-85
2022/03/02 15:03:19;;;;;;;;;48.50;39.50;;;;;15.32;35.90;101168.78;5059394;28;45508;-83
2022/03/02 15:06:00;;;;;;;;;54.25;39.75;;;;;15.18;35.71;101137.91;5061240;27;45381;-87
2022/03/02 15:08:31;;;;;;;;;43.75;37.00;;;;;15.30;35.89;101165.28;5061310;28;45535;-86
2022/03/02 15:11:07;;;;;;;;;50.00;41.75;;;;;15.30;35.79;101167.91;5062893;28;45346;-79
2022/03/02 15:16:17;;;;;;;;;37.75;35.25;;;;;15.27;36.34;101161.75;5057423;28;45507;-74
2022/03/02 15:18:53;;;;;;;;;50.25;40.00;;;;;15.27;36.08;101161.75;5057289;28;45545;-73
2022/03/02 15:21:19;;;;;;;;;52.75;43.75;;;;;15.31;36.41;101168.81;5056449;28;46913;-82
2022/03/02 15:23:44;;;;;;;;;48.50;39.00;;;;;15.25;36.49;101166.16;5057432;28;45459;-77
2022/03/02 15:26:10;;;;;;;;;45.75;38.75;;;;;15.28;36.43;101164.41;5057225;28;45515;-74
2022/03/02 15:28:35;;;;;;;;;47.25;39.25;;;;;15.25;36.88;101163.50;5058380;28;45570;-76
2022/03/02 15:31:00;;;;;;;;;50.00;41.00;;;;;15.24;37.11;101165.28;5057968;28;48343;-81
2022/03/02 15:33:30;;;;;;;;;39.50;34.25;;;;;15.21;37.20;101154.69;5058589;28;45549;-77
2022/03/02 15:36:09;;;;;;;;;40.25;35.00;;;;;15.14;37.26;101158.25;5059061;28;45450;-87
2022/03/02 15:38:35;;;;;;;;;50.25;40.00;;;;;15.00;37.74;101153.03;5057971;28;45506;-78
2022/03/02 15:41:02;;;;;;;;;51.25;41.00;;;;;15.08;38.17;101164.50;5041310;28;45423;-78
2022/03/02 15:43:27;;;;;;;;;53.75;41.00;;;;;15.02;37.50;101169.81;5057046;28;45495;-78
2022/03/02 15:45:52;;;;;;;;;52.25;42.50;;;;;14.95;37.84;101164.53;5039762;28;45442;-76
2022/03/02 15:48:24;;;;;;;;;49.50;39.50;;;;;14.96;38.29;101168.94;5057424;28;45203;-81
2022/03/02 15:50:53;;;;;;;;;46.75;40.00;;;;;14.60;37.86;101099.22;5056002;28;46636;-78
2022/03/02 15:53:27;;;;;;;;;45.75;40.00;;;;;14.84;38.21;101153.97;5055676;28;45196;-78
2022/03/02 15:56:03;;;;;;;;;45.75;39.25;;;;;14.80;38.10;101165.50;5055713;28;45475;-78
2022/03/02 15:58:36;;;;;;;;;41.25;35.50;;;;;14.57;38.31;101146.09;5055830;28;45561;-84
2022/03/02 16:01:03;;;;;;;;;48.25;39.50;;;;;14.38;38.88;101138.16;5056943;28;45413;-77
2022/03/02 16:03:31;;;;;;;;;50.50;37.00;;;;;14.36;39.40;101163.78;5057639;28;45315;-79
2022/03/02 16:05:59;;;;;;;;;47.75;39.25;;;;;14.24;39.09;101148.78;5056492;28;45385;-76
2022/03/02 16:08:29;;;;;;;;;53.50;42.25;;;;;14.06;39.78;101154.09;5055286;28;45615;-77
2022/03/02 16:11:19;;;;;;;;;45.75;40.25;;;;;14.09;39.68;101159.38;5053421;28;47122;-77
2022/03/02 16:14:13;;;;;;;;;48.50;39.25;;;;;14.11;39.92;101162.03;5055238;28;45446;-83
2022/03/02 16:16:40;;;;;;;;;53.00;43.75;;;;;14.13;39.97;101153.19;5059169;28;45626;-84
2022/03/02 16:19:14;;;;;;;;;51.75;42.50;;;;;14.12;39.75;101155.84;5058386;28;45256;-80
2022/03/02 16:21:43;;;;;;;;;51.25;40.25;;;;;14.04;39.83;101163.78;5040700;28;45348;-82
2022/03/02 16:24:29;;;;;;;;;53.00;43.25;;;;;13.81;40.18;101158.47;5058892;28;45465;-84
2022/03/02 16:27:18;;;;;;;;;52.75;40.00;;;;;13.81;40.01;101153.19;5059478;28;45414;-80
2022/03/02 16:29:45;;;;;;;;;47.25;35.25;;;;;13.66;40.26;101143.44;5057657;28;45408;-81
2022/03/02 16:32:12;;;;;;;;;47.75;39.25;;;;;13.66;40.37;101137.28;5074217;28;48010;-82
2022/03/02 16:34:39;;;;;;;;;48.25;41.50;;;;;13.75;40.36;101161.13;5057801;28;45190;-80
2022/03/02 16:37:05;;;;;;;;;46.25;40.00;;;;;13.67;39.98;101146.97;5058512;28;44872;-82
2022/03/02 16:39:32;;;;;;;;;44.00;38.50;;;;;13.63;40.44;101143.47;5062268;28;45418;-77
2022/03/02 16:41:58;;;;;;;;;46.00;37.75;;;;;13.72;40.31;101149.66;5061619;28;45583;-79
2022/03/02 16:44:24;;;;;;;;;50.25;39.00;;;;;13.72;40.41;101157.59;5056538;28;45371;-79
2022/03/02 16:46:49;;;;;;;;;49.00;40.25;;;;;13.79;40.51;101169.97;5055593;28;45418;-73
2022/03/02 16:49:15;;;;;;;;;51.00;40.75;;;;;13.74;40.71;101155.81;5056241;28;45373;-78
2022/03/02 16:51:40;;;;;;;;;50.00;42.50;;;;;13.66;40.48;101161.09;5059007;28;46025;-78
2022/03/02 16:54:06;;;;;;;;;55.50;45.25;;;;;13.67;40.96;101155.81;5059766;28;45269;-77
2022/03/02 16:56:31;;;;;;;;;46.25;38.25;;;;;13.71;40.53;101164.66;5058249;28;45460;-86
2022/03/02 16:58:57;;;;;;;;;49.75;41.50;;;;;13.57;40.76;101140.78;5044587;28;45524;-81
2022/03/02 17:01:22;;;;;;;;;59.50;44.00;;;;;13.67;40.63;101163.75;5056932;28;46223;-79
2022/03/02 17:03:48;;;;;;;;;51.25;40.25;;;;;13.65;40.88;101152.28;5055402;28;45446;-80
2022/03/02 17:08:57;;;;;;;;;56.75;43.50;;;;;13.53;40.70;101143.44;5058448;28;45376;-82
2022/03/02 17:11:23;;;;;;;;;55.75;41.75;;;;;13.61;41.23;101169.06;5058865;28;46419;-72
2022/03/02 17:13:48;;;;;;;;;54.00;41.50;;;;;13.40;41.78;101142.53;5059214;28;45452;-87
2022/03/02 17:16:13;;;;;;;;;56.50;42.25;;;;;13.51;41.61;101161.09;5066857;28;46144;-80
2022/03/02 17:18:40;;;;;;;;;43.75;37.25;;;;;13.28;41.29;101129.28;5058772;28;45482;-85
2022/03/02 17:21:06;;;;;;;;;51.25;42.50;;;;;13.40;41.43;101164.59;5059104;28;45415;-83
2022/03/02 17:23:31;;;;;;;;;51.00;40.25;;;;;13.30;41.56;101164.53;5055882;28;45490;-84
2022/03/02 17:25:57;;;;;;;;;53.25;41.50;;;;;13.00;42.33;101146.78;5055718;28;45751;-84
2022/03/02 17:28:22;;;;;;;;;49.50;39.75;;;;;12.95;43.00;101164.41;5055655;28;45458;-85
2022/03/02 17:30:48;;;;;;;;;52.25;41.25;;;;;12.85;42.68;101179.34;5055747;28;45647;-85
2022/03/02 17:33:13;;;;;;;;;41.00;38.00;;;;;12.73;43.90;101155.47;5056292;28;45516;-80
2022/03/02 17:35:40;;;;;;;;;52.75;41.00;;;;;12.62;43.33;101146.59;5055765;28;45789;-82
2022/03/02 17:38:05;;;;;;;;;54.75;45.25;;;;;12.68;44.12;101166.03;5054548;28;45382;-85
2022/03/02 17:40:31;;;;;;;;;49.50;43.00;;;;;12.67;44.20;101173.94;5055516;28;47024;-83
2022/03/02 17:42:56;;;;;;;;;51.75;43.75;;;;;12.55;44.10;101157.13;5062577;28;45479;-80
2022/03/02 17:45:22;;;;;;;;;53.50;45.00;;;;;12.65;43.77;101170.38;5057163;28;45388;-74
2022/03/02 17:47:47;;;;;;;;;51.00;43.00;;;;;12.59;44.39;101176.53;5053498;28;45515;-86
2022/03/02 17:50:13;;;;;;;;;51.00;42.50;;;;;12.54;44.42;101175.63;5039085;28;46305;-87
2022/03/02 17:52:40;;;;;;;;;52.50;42.50;;;;;12.26;45.36;101145.47;5057555;28;45229;-87
2022/03/02 17:55:06;;;;;;;;;51.50;41.25;;;;;12.43;45.01;101178.19;5054402;28;45495;-88
2022/03/02 17:57:32;;;;;;;;;56.75;46.50;;;;;12.41;45.75;101181.72;5059080;28;45580;-87
2022/03/02 17:59:57;;;;;;;;;59.75;44.25;;;;;12.40;45.89;101182.59;5059285;28;46698;-88
2022/03/02 18:02:28;;;;;;;;;47.75;40.00;;;;;12.37;45.98;101175.50;5057819;28;45503;-86
2022/03/02 18:04:54;;;;;;;;;48.50;41.00;;;;;12.35;45.22;101171.09;5065332;28;45380;-90
2022/03/02 18:07:19;;;;;;;;;56.00;44.25;;;;;12.37;45.92;101180.78;5065394;28;45378;-89
2022/03/02 18:09:44;;;;;;;;;55.00;41.50;;;;;12.24;45.49;101155.16;5063921;28;45627;-81
2022/03/02 18:12:10;;;;;;;;;56.75;45.00;;;;;12.24;46.07;101163.09;5063927;28;45437;-81
2022/03/02 18:14:36;;;;;;;;;53.50;45.75;;;;;12.23;46.11;101164.84;5060869;28;45464;-84
2022/03/02 18:17:02;;;;;;;;;55.25;43.75;;;;;12.27;46.24;101171.91;5067778;28;45310;-77
2022/03/02 18:19:30;;;;;;;;;56.00;47.00;;;;;12.06;46.69;101133.91;5069393;28;45559;-79
2022/03/02 18:21:56;;;;;;;;;60.50;45.00;;;;;12.31;45.63;101185.16;5050257;28;45360;-84
2022/03/02 18:24:21;;;;;;;;;56.25;46.00;;;;;12.27;46.58;101179.84;5052644;28;45704;-84
2022/03/02 18:26:51;;;;;;;;;56.25;44.00;;;;;11.88;46.32;101113.50;5064375;28;45474;-82
2022/03/02 18:29:22;;;;;;;;;57.00;43.50;;;;;12.15;46.35;101163.91;5061426;28;46226;-86
2022/03/02 18:31:49;;;;;;;;;62.25;49.50;;;;;12.22;46.66;101178.94;5073177;28;45600;-84
2022/03/02 18:34:15;;;;;;;;;55.25;45.75;;;;;12.14;46.52;101166.53;5060030;28;45705;-81
2022/03/02 18:36:43;;;;;;;;;57.50;45.00;;;;;12.17;47.15;101179.75;5060021;28;45462;-81
2022/03/02 18:39:29;;;;;;;;;55.75;44.50;;;;;12.15;46.71;101186.78;5059706;28;46452;-80
2022/03/02 18:41:55;;;;;;;;;57.50;47.25;;;;;12.12;46.88;101173.56;5061811;28;45545;-79
2022/03/02 18:44:23;;;;;;;;;56.00;45.50;;;;;12.11;46.64;101172.69;5069605;28;45388;-79
2022/03/02 18:46:50;;;;;;;;;63.50;50.25;;;;;11.98;47.56;101155.84;5079421;28;45416;-83
2022/03/02 18:49:27;;;;;;;;;65.00;48.00;;;;;11.89;47.55;101136.41;5068959;28;46665;-79
2022/03/02 18:51:54;;;;;;;;;57.25;47.00;;;;;11.92;47.66;101147.88;5069057;28;45483;-81
2022/03/02 18:54:20;;;;;;;;;56.00;47.00;;;;;12.02;48.43;101169.09;5064039;28;45502;-81
2022/03/02 18:56:47;;;;;;;;;62.50;48.25;;;;;12.01;48.38;101168.22;5069938;28;45543;-83
2022/03/02 18:59:16;;;;;;;;;58.25;48.25;;;;;11.87;48.59;101146.94;5061247;28;45439;-83
2022/03/02 19:01:43;;;;;;;;;61.75;49.00;;;;;11.99;48.75;101173.44;5065306;28;45627;-82
2022/03/02 19:04:09;;;;;;;;;62.25;49.25;;;;;11.95;48.77;101173.41;5057336;28;45444;-79
2022/03/02 19:06:36;;;;;;;;;65.50;51.00;;;;;11.94;49.05;101169.00;5057375;28;45516;-77
2022/03/02 19:09:04;;;;;;;;;59.75;48.00;;;;;11.84;48.61;101151.31;5057788;28;45461;-79
2022/03/02 19:11:30;;;;;;;;;58.25;47.25;;;;;11.84;49.77;101159.25;5062385;28;45749;-79
2022/03/02 19:13:55;;;;;;;;;56.25;46.75;;;;;11.78;49.41;101153.88;5058051;28;45677;-79
2022/03/02 19:16:21;;;;;;;;;54.75;46.75;;;;;11.82;49.45;101163.59;5058322;28;45568;-77
2022/03/02 19:18:46;;;;;;;;;61.00;49.25;;;;;11.76;50.19;101168.81;5058052;28;45679;-78
2022/03/02 19:21:17;;;;;;;;;56.25;45.75;;;;;11.75;49.73;101169.69;5057105;28;45497;-78
2022/03/02 19:23:45;;;;;;;;;63.00;52.25;;;;;11.69;49.39;101155.53;5059379;28;45455;-78
2022/03/02 19:26:12;;;;;;;;;64.50;51.75;;;;;11.70;50.14;101165.22;5057806;28;45446;-78
2022/03/02 19:28:44;;;;;;;;;66.25;51.25;;;;;11.69;50.08;101162.59;5059618;28;45638;-80
2022/03/02 19:31:10;;;;;;;;;64.50;50.50;;;;;11.36;50.18;101095.44;5065059;28;45330;-81
2022/03/02 19:33:36;;;;;;;;;62.50;49.50;;;;;11.64;50.54;101159.91;5058984;28;45459;-81
2022/03/02 19:36:03;;;;;;;;;59.50;47.00;;;;;11.63;49.81;101163.44;5072397;28;45441;-83
2022/03/02 19:41:29;;;;;;;;;59.50;48.50;;;;;11.39;50.75;101135.03;5036084;28;45366;-82
2022/03/02 19:43:54;;;;;;;;;61.75;49.25;;;;;11.59;50.44;101172.16;5036085;28;45496;-82
2022/03/02 19:46:22;;;;;;;;;58.25;47.00;;;;;11.57;50.69;101168.63;5035673;28;45590;-80
2022/03/02 19:48:50;;;;;;;;;59.50;47.50;;;;;11.42;50.56;101150.88;5033799;28;46558;-85
2022/03/02 19:51:18;;;;;;;;;63.50;51.00;;;;;11.48;50.38;101163.25;5036110;28;45432;-85
2022/03/02 19:53:45;;;;;;;;;59.00;48.50;;;;;11.44;50.87;101166.72;5036187;28;45290;-81
2022/03/02 19:56:11;;;;;;;;;59.50;48.75;;;;;11.39;51.29;101165.78;5036531;28;45308;-81
2022/03/02 19:58:41;;;;;;;;;56.00;45.00;;;;;11.43;50.80;101173.75;5035882;28;46476;-83
2022/03/02 20:01:08;;;;;;;;;62.00;51.50;;;;;11.31;50.63;101151.63;5034644;28;45541;-81
2022/03/02 20:03:34;;;;;;;;;65.75;50.25;;;;;11.45;50.75;101181.72;5036033;28;45377;-81
2022/03/02 20:06:01;;;;;;;;;60.25;52.25;;;;;11.36;51.71;101160.50;5040704;28;45555;-80
2022/03/02 20:08:28;;;;;;;;;57.50;46.75;;;;;11.32;51.74;101159.56;5036631;28;46180;-85
2022/03/02 20:10:53;;;;;;;;;65.00;51.50;;;;;11.40;51.93;101178.13;5036157;28;45610;-83
2022/03/02 20:13:20;;;;;;;;;65.00;52.00;;;;;11.37;51.51;101178.97;5035654;28;45585;-80
2022/03/02 20:15:45;;;;;;;;;59.25;49.25;;;;;11.18;51.38;101137.44;5042991;28;45552;-81
2022/03/02 20:18:12;;;;;;;;;66.00;53.50;;;;;11.39;51.79;101181.63;5059013;28;47521;-82
2022/03/02 20:20:40;;;;;;;;;73.00;55.25;;;;;11.39;52.25;101174.59;5058647;28;45244;-82
2022/03/02 20:23:06;;;;;;;;;65.25;51.25;;;;;11.39;51.87;101176.34;5061023;28;45425;-85
2022/03/02 20:25:32;;;;;;;;;67.00;53.75;;;;;11.28;52.25;101167.44;5059574;28;45490;-84
2022/03/02 20:28:03;;;;;;;;;64.00;51.50;;;;;11.32;52.13;101178.03;5043075;28;46109;-84
2022/03/02 20:30:31;;;;;;;;;66.00;52.50;;;;;11.10;52.04;101152.28;5065163;28;45505;-83
2022/03/02 20:32:57;;;;;;;;;77.25;60.00;;;;;11.23;51.76;101169.13;5062692;28;45455;-85
2022/03/02 20:35:22;;;;;;;;;73.25;57.25;;;;;10.81;52.24;101102.75;5065205;27;45507;-81
2022/03/02 20:37:48;;;;;;;;;68.50;53.00;;;;;11.04;51.71;101146.94;5057320;28;45981;-80
2022/03/02 20:40:14;;;;;;;;;70.50;56.00;;;;;11.27;52.18;101182.38;5057189;28;45472;-80
2022/03/02 20:42:39;;;;;;;;;65.00;51.25;;;;;10.77;52.66;101102.66;5059571;28;45514;-80
2022/03/02 20:45:05;;;;;;;;;73.75;55.25;;;;;11.27;52.73;101181.50;5059304;28;45430;-83
2022/03/02 20:47:31;;;;;;;;;71.50;56.25;;;;;11.26;52.27;101180.63;5058958;28;45675;-83
2022/03/02 20:49:56;;;;;;;;;64.75;53.75;;;;;11.20;52.46;101175.25;5056738;28;45453;-80
2022/03/02 20:52:22;;;;;;;;;70.75;55.75;;;;;11.21;52.06;101174.38;5057385;28;45677;-82
2022/03/02 20:54:47;;;;;;;;;69.25;53.00;;;;;11.21;52.62;101176.13;5061240;28;45359;-85
2022/03/02 20:57:14;;;;;;;;;74.00;55.00;;;;;11.00;52.41;101147.78;5059220;28;46139;-81
2022/03/02 20:59:42;;;;;;;;;68.25;56.00;;;;;11.22;52.08;101172.63;5062535;28;45215;-80
2022/03/02 21:02:08;;;;;;;;;70.50;54.00;;;;;11.19;51.74;101175.25;5058383;28;45556;-81
2022/03/02 21:04:34;;;;;;;;;70.50;54.00;;;;;11.14;52.23;101156.72;5058570;28;45452;-78
2022/03/02 21:07:00;;;;;;;;;71.50;53.50;;;;;11.24;52.30;101178.81;5062458;28;46391;-87
2022/03/02 21:09:25;;;;;;;;;66.00;53.00;;;;;11.22;52.90;101175.28;5060764;28;45493;-83
2022/03/02 21:11:51;;;;;;;;;69.75;53.00;;;;;11.19;52.17;101173.50;5070849;28;45259;-83
2022/03/02 21:14:16;;;;;;;;;63.75;51.25;;;;;11.16;53.11;101168.16;5073107;28;45512;-84
2022/03/02 21:16:42;;;;;;;;;70.75;55.75;;;;;10.97;52.67;101143.31;5075177;28;45500;-85
2022/03/02 21:19:12;;;;;;;;;68.50;53.75;;;;;10.88;52.74;101135.31;5062433;28;45460;-84
2022/03/02 21:21:38;;;;;;;;;63.00;52.00;;;;;11.11;53.24;101169.88;5058815;28;45509;-88
2022/03/02 21:24:04;;;;;;;;;65.75;51.50;;;;;11.11;52.85;101177.78;5041528;28;45426;-88